createdAt,value
2023-04-01T00:02:23.744Z,1.17
2023-04-01T00:04:52.436Z,1.31
2023-04-01T00:07:21.370Z,1.19
2023-04-01T00:09:50.958Z,1.20
2023-04-01T00:12:21.311Z,1.24
2023-04-01T00:14:50.058Z,1.26
2023-04-01T00:17:19.485Z,1.32
2023-04-01T00:19:48.162Z,1.23
2023-04-01T00:22:16.917Z,1.20
2023-04-01T00:24:45.744Z,1.25
2023-04-01T00:27:14.489Z,1.26
2023-04-01T00:29:46.529Z,1.27
2023-04-01T00:32:16.444Z,1.17
2023-04-01T00:34:45.697Z,1.24
2023-04-01T00:37:14.433Z,1.27
2023-04-01T00:39:43.638Z,1.22
2023-04-01T00:42:13.341Z,1.26
2023-04-01T00:44:43.494Z,1.19
2023-04-01T00:47:13.938Z,1.24
2023-04-01T00:49:48.255Z,1.16
2023-04-01T00:52:23.730Z,1.28
2023-04-01T00:54:58.848Z,1.33
2023-04-01T00:57:35.329Z,1.32
2023-04-01T01:00:07.602Z,1.34
2023-04-01T01:02:38.833Z,1.24
2023-04-01T01:05:08.536Z,1.30
2023-04-01T01:07:46.446Z,1.17
2023-04-01T01:10:20.914Z,1.24
2023-04-01T01:13:04.341Z,1.30
2023-04-01T01:15:40.403Z,1.23
2023-04-01T01:18:24.612Z,1.20
2023-04-01T01:21:34.569Z,1.27
2023-04-01T01:24:44.052Z,1.20
2023-04-01T01:27:14.987Z,1.12
2023-04-01T01:30:25.065Z,1.26
2023-04-01T01:33:52.711Z,1.32
2023-04-01T01:36:25.934Z,1.27
2023-04-01T01:38:55.450Z,1.21
2023-04-01T01:41:27.668Z,1.14
2023-04-01T01:44:00.053Z,1.17
2023-04-01T01:46:33.098Z,1.12
2023-04-01T01:49:05.453Z,1.21
2023-04-01T01:51:36.721Z,1.18
2023-04-01T01:54:07.077Z,1.22
2023-04-01T01:56:37.968Z,1.04
2023-04-01T01:59:12.248Z,1.20
2023-04-01T02:01:47.993Z,1.24
2023-04-01T02:04:20.382Z,1.16
2023-04-01T02:06:57.836Z,1.13
2023-04-01T02:09:27.186Z,1.04
2023-04-01T02:12:03.279Z,1.07
2023-04-01T02:14:47.052Z,1.01
2023-04-01T02:17:19.125Z,1.05
2023-04-01T02:19:55.823Z,1.08
2023-04-01T02:22:32.296Z,1.16
2023-04-01T02:25:05.128Z,1.08
2023-04-01T02:27:34.555Z,1.12
2023-04-01T02:30:03.654Z,1.16
2023-04-01T02:32:38.938Z,1.09
2023-04-01T02:35:11.500Z,1.08
2023-04-01T02:37:43.464Z,1.16
2023-04-01T02:40:16.658Z,1.16
2023-04-01T02:42:45.911Z,1.11
2023-04-01T02:45:16.663Z,0.99
2023-04-01T02:47:45.803Z,1.05
2023-04-01T02:50:14.790Z,1.04
2023-04-01T02:52:44.744Z,0.99
2023-04-01T02:55:14.242Z,1.11
2023-04-01T02:57:42.907Z,1.09
2023-04-01T03:00:13.744Z,1.09
2023-04-01T03:02:45.350Z,1.05
2023-04-01T03:05:14.087Z,1.04
2023-04-01T03:07:44.217Z,1.15
2023-04-01T03:10:13.440Z,0.98
2023-04-01T03:12:43.540Z,1.04
2023-04-01T03:15:15.704Z,1.13
2023-04-01T03:17:45.576Z,0.93
2023-04-01T03:20:16.071Z,0.94
2023-04-01T03:22:48.015Z,0.99
2023-04-01T03:25:16.936Z,0.97
2023-04-01T03:27:45.936Z,0.99
2023-04-01T03:30:16.234Z,1.02
2023-04-01T03:32:51.860Z,0.94
2023-04-01T03:35:21.161Z,0.99
2023-04-01T03:37:53.196Z,1.05
2023-04-01T03:40:22.859Z,1.08
2023-04-01T03:42:52.751Z,1.13
2023-04-01T03:45:22.562Z,0.99
2023-04-01T03:47:51.815Z,1.08
2023-04-01T03:50:21.180Z,1.11
2023-04-01T03:52:53.767Z,1.13
2023-04-01T03:55:23.149Z,1.07
2023-04-01T03:57:52.034Z,1.11
2023-04-01T04:00:22.147Z,1.04
2023-04-01T04:02:57.234Z,1.18
2023-04-01T04:05:32.558Z,1.13
2023-04-01T04:08:04.049Z,1.18
2023-04-01T04:10:33.797Z,1.10
2023-04-01T04:13:03.538Z,1.08
2023-04-01T04:15:34.601Z,1.09
2023-04-01T04:18:03.539Z,1.13
2023-04-01T04:20:32.557Z,1.25
2023-04-01T04:23:02.879Z,1.13
2023-04-01T04:25:34.356Z,1.21
2023-04-01T04:28:03.414Z,1.21
2023-04-01T04:30:32.126Z,1.21
2023-04-01T04:33:00.889Z,1.16
2023-04-01T04:35:29.714Z,1.22
2023-04-01T04:37:58.616Z,1.31
2023-04-01T04:40:30.048Z,1.27
2023-04-01T04:42:58.792Z,1.25
2023-04-01T04:45:27.474Z,1.34
2023-04-01T04:47:58.921Z,1.32
2023-04-01T04:50:28.029Z,1.36
2023-04-01T04:52:58.837Z,1.42
2023-04-01T04:55:38.693Z,1.34
2023-04-01T04:58:24.003Z,1.39
2023-04-01T05:00:53.272Z,1.34
2023-04-01T05:03:31.510Z,1.44
2023-04-01T05:06:02.184Z,1.41
2023-04-01T05:08:33.805Z,1.37
2023-04-01T05:11:13.882Z,1.43
2023-04-01T05:13:45.499Z,1.50
2023-04-01T05:16:17.448Z,1.40
2023-04-01T05:18:48.529Z,1.49
2023-04-01T05:21:36.010Z,1.57
2023-04-01T05:24:05.708Z,1.58
2023-04-01T05:26:36.141Z,1.64
2023-04-01T05:29:06.173Z,1.61
2023-04-01T05:31:36.112Z,1.83
2023-04-01T05:34:06.247Z,1.78
2023-04-01T05:36:36.916Z,1.86
2023-04-01T05:39:06.298Z,1.87
2023-04-01T05:41:37.591Z,1.97
2023-04-01T05:44:08.710Z,2.02
2023-04-01T05:46:48.643Z,2.04
2023-04-01T05:49:23.366Z,1.97
2023-04-01T05:51:54.123Z,2.09
2023-04-01T05:54:29.357Z,2.13
2023-04-01T05:57:07.950Z,2.21
2023-04-01T05:59:39.421Z,2.18
2023-04-01T06:02:20.652Z,2.21
2023-04-01T06:04:50.100Z,2.18
2023-04-01T06:07:21.248Z,2.22
2023-04-01T06:09:50.438Z,2.26
2023-04-01T06:12:50.306Z,2.17
2023-04-01T06:15:45.137Z,2.25
2023-04-01T06:19:12.814Z,2.26
2023-04-01T06:22:46.593Z,2.28
2023-04-01T06:25:47.527Z,2.18
2023-04-01T06:29:25.904Z,2.02
2023-04-01T06:33:11.351Z,2.22
2023-04-01T06:36:05.266Z,2.09
2023-04-01T06:39:24.527Z,2.32
2023-04-01T06:42:25.470Z,2.30
2023-04-01T06:45:19.835Z,2.46
2023-04-01T06:48:41.273Z,2.53
2023-04-01T06:52:07.145Z,2.76
2023-04-01T06:55:03.454Z,2.69
2023-04-01T06:57:54.508Z,2.80
2023-04-01T07:00:31.592Z,2.88
2023-04-01T07:03:15.046Z,2.82
2023-04-01T07:05:49.295Z,3.00
2023-04-01T07:08:26.214Z,2.99
2023-04-01T07:11:06.661Z,3.13
2023-04-01T07:14:02.427Z,3.13
2023-04-01T07:16:41.353Z,3.11
2023-04-01T07:19:23.179Z,2.99
2023-04-01T07:22:15.866Z,3.09
2023-04-01T07:25:16.072Z,3.23
2023-04-01T07:28:07.428Z,3.16
2023-04-01T07:31:07.316Z,3.04
2023-04-01T07:33:53.504Z,3.26
2023-04-01T07:36:46.199Z,3.28
2023-04-01T07:39:38.339Z,3.39
2023-04-01T07:42:37.263Z,3.61
2023-04-01T07:45:22.905Z,3.65
2023-04-01T07:48:16.674Z,3.62
2023-04-01T07:50:58.497Z,3.75
2023-04-01T07:53:39.512Z,3.92
2023-04-01T07:56:18.090Z,4.09
2023-04-01T07:59:12.615Z,4.07
2023-04-01T08:02:24.900Z,4.14
2023-04-01T08:05:15.395Z,4.05
2023-04-01T08:08:01.997Z,4.28
2023-04-01T08:11:00.754Z,4.16
2023-04-01T08:14:02.323Z,3.95
2023-04-01T08:17:05.433Z,3.86
2023-04-01T08:20:05.502Z,3.91
2023-04-01T08:22:47.484Z,3.99
2023-04-01T08:25:34.709Z,3.91
2023-04-01T08:28:16.571Z,4.11
2023-04-01T08:31:07.567Z,4.14
2023-04-01T08:33:51.873Z,4.11
2023-04-01T08:36:39.765Z,4.02
2023-04-01T08:39:34.081Z,4.15
2023-04-01T08:43:01.282Z,4.22
2023-04-01T08:46:13.391Z,4.25
2023-04-01T08:49:17.627Z,4.24
2023-04-01T08:52:36.206Z,4.23
2023-04-01T08:56:05.709Z,4.13
2023-04-01T08:59:27.832Z,4.13
2023-04-01T09:02:49.959Z,4.11
2023-04-01T09:05:46.894Z,4.06
2023-04-01T09:08:39.666Z,3.83
2023-04-01T09:12:00.498Z,3.85
2023-04-01T09:14:57.925Z,4.02
2023-04-01T09:18:28.905Z,4.00
2023-04-01T09:21:36.884Z,4.02
2023-04-01T09:25:04.489Z,4.06
2023-04-01T09:27:48.549Z,4.08
2023-04-01T09:31:19.277Z,3.90
2023-04-01T09:35:14.664Z,3.55
2023-04-01T09:38:03.949Z,3.52
2023-04-01T09:41:19.916Z,3.58
2023-04-01T09:44:36.680Z,3.49
2023-04-01T09:47:37.112Z,3.47
2023-04-01T09:50:51.170Z,3.39
2023-04-01T09:54:16.389Z,3.20
2023-04-01T09:57:57.050Z,3.38
2023-04-01T10:01:38.562Z,3.41
2023-04-01T10:05:24.389Z,3.26
2023-04-01T10:09:01.167Z,3.17
2023-04-01T10:12:18.118Z,3.11
2023-04-01T10:16:02.652Z,3.11
2023-04-01T10:19:33.063Z,3.10
2023-04-01T10:22:50.819Z,3.08
2023-04-01T10:26:01.526Z,3.21
2023-04-01T10:29:39.522Z,3.34
2023-04-01T10:33:03.995Z,3.44
2023-04-01T10:36:43.938Z,3.51
2023-04-01T10:40:14.652Z,3.77
2023-04-01T10:43:54.629Z,3.83
2023-04-01T10:47:18.053Z,3.81
2023-04-01T10:50:27.911Z,4.01
2023-04-01T10:54:06.676Z,3.91
2023-04-01T10:57:02.344Z,3.81
2023-04-01T11:00:53.608Z,3.72
2023-04-01T11:05:13.321Z,3.75
2023-04-01T11:08:52.089Z,3.73
2023-04-01T11:12:42.601Z,3.82
2023-04-01T11:16:24.288Z,3.93
2023-04-01T11:19:41.771Z,4.02
2023-04-01T11:22:57.943Z,3.95
2023-04-01T11:26:07.368Z,3.95
2023-04-01T11:29:33.406Z,4.00
2023-04-01T11:32:40.796Z,3.97
2023-04-01T11:36:08.285Z,3.88
2023-04-01T11:39:25.397Z,4.02
2023-04-01T11:42:34.906Z,4.31
2023-04-01T11:45:38.088Z,4.20
2023-04-01T11:48:36.543Z,4.14
2023-04-01T11:51:48.545Z,4.05
2023-04-01T11:54:44.365Z,4.16
2023-04-01T11:58:09.865Z,3.93
2023-04-01T12:00:58.916Z,4.19
2023-04-01T12:04:43.120Z,4.18
2023-04-01T12:07:28.962Z,3.96
2023-04-01T12:10:25.330Z,3.82
2023-04-01T12:13:05.359Z,3.84
2023-04-01T12:16:01.872Z,3.67
2023-04-01T12:18:45.159Z,3.77
2023-04-01T12:21:38.379Z,3.76
2023-04-01T12:24:34.840Z,3.62
2023-04-01T12:27:31.358Z,3.76
2023-04-01T12:30:46.962Z,3.91
2023-04-01T12:34:02.883Z,3.79
2023-04-01T12:37:00.070Z,3.93
2023-04-01T12:40:01.316Z,3.74
2023-04-01T12:42:52.881Z,3.66
2023-04-01T12:45:35.559Z,3.60
2023-04-01T12:48:32.839Z,3.43
2023-04-01T12:51:35.565Z,3.38
2023-04-01T12:54:44.826Z,3.30
2023-04-01T12:57:42.525Z,3.30
2023-04-01T13:00:45.098Z,3.17
2023-04-01T13:03:42.250Z,3.11
2023-04-01T13:10:05.475Z,3.04
2023-04-01T13:13:37.298Z,3.05
2023-04-01T13:19:35.178Z,2.75
2023-04-01T13:22:14.737Z,2.73
2023-04-01T13:24:57.227Z,2.73
2023-04-01T13:33:38.117Z,2.29
2023-04-01T13:36:40.737Z,2.17
2023-04-01T13:39:49.123Z,2.18
2023-04-01T13:42:31.690Z,2.11
2023-04-01T13:45:16.757Z,2.08
2023-04-01T13:48:38.891Z,2.09
2023-04-01T13:51:35.999Z,2.05
2023-04-01T13:55:07.722Z,2.09
2023-04-01T13:58:09.393Z,2.17
2023-04-01T14:01:11.435Z,2.18
2023-04-01T14:04:30.079Z,2.17
2023-04-01T14:07:21.272Z,2.18
2023-04-01T14:10:22.774Z,2.20
2023-04-01T14:13:07.968Z,2.29
2023-04-01T14:16:02.630Z,2.19
2023-04-01T14:19:05.569Z,2.21
2023-04-01T14:21:49.661Z,2.20
2023-04-01T14:24:48.715Z,2.13
2023-04-01T14:27:43.241Z,1.99
2023-04-01T14:30:57.393Z,1.99
2023-04-01T14:33:47.168Z,1.97
2023-04-01T14:36:46.727Z,1.92
2023-04-01T14:39:45.510Z,2.02
2023-04-01T14:42:47.423Z,2.04
2023-04-01T14:46:15.650Z,2.01
2023-04-01T14:49:12.342Z,2.06
2023-04-01T14:51:46.118Z,2.05
2023-04-01T14:54:23.981Z,2.13
2023-04-01T14:57:13.404Z,2.04
2023-04-01T14:59:51.649Z,2.04
2023-04-01T15:03:20.102Z,2.05
2023-04-01T15:05:57.183Z,1.97
2023-04-01T15:08:34.025Z,2.04
2023-04-01T15:11:46.829Z,2.02
2023-04-01T15:14:57.482Z,1.86
2023-04-01T15:17:59.519Z,1.91
2023-04-01T15:21:36.542Z,1.83
2023-04-01T15:24:24.947Z,1.79
2023-04-01T15:27:17.325Z,1.74
2023-04-01T15:30:20.372Z,1.71
2023-04-01T15:33:09.108Z,1.70
2023-04-01T15:35:53.694Z,1.75
2023-04-01T15:38:37.484Z,1.83
2023-04-01T15:41:17.990Z,1.94
2023-04-01T15:43:51.299Z,1.99
2023-04-01T15:46:49.182Z,2.04
2023-04-01T15:49:44.765Z,1.99
2023-04-01T15:52:39.647Z,1.90
2023-04-01T15:55:41.045Z,1.72
2023-04-01T15:58:41.049Z,1.61
2023-04-01T16:01:31.451Z,1.62
2023-04-01T16:04:29.992Z,1.67
2023-04-01T16:07:32.798Z,1.74
2023-04-01T16:10:24.064Z,1.81
2023-04-01T16:13:23.561Z,1.78
2023-04-01T16:16:06.291Z,1.73
2023-04-01T16:19:21.967Z,1.74
2023-04-01T16:22:01.825Z,1.79
2023-04-01T16:24:43.734Z,1.64
2023-04-01T16:27:22.739Z,1.64
2023-04-01T16:29:58.508Z,1.73
2023-04-01T16:32:46.440Z,1.75
2023-04-01T16:35:43.763Z,1.77
2023-04-01T16:38:25.510Z,1.58
2023-04-01T16:41:26.651Z,1.67
2023-04-01T16:44:11.625Z,1.59
2023-04-01T16:46:46.694Z,1.52
2023-04-01T16:49:44.617Z,1.47
2023-04-01T16:52:34.871Z,1.48
2023-04-01T16:55:20.530Z,1.54
2023-04-01T16:57:54.365Z,1.48
2023-04-01T17:00:29.629Z,1.39
2023-04-01T17:03:18.947Z,1.39
2023-04-01T17:06:34.618Z,1.44
2023-04-01T17:09:33.817Z,1.39
2023-04-01T17:12:23.086Z,1.51
2023-04-01T17:15:04.544Z,1.43
2023-04-01T17:17:45.712Z,1.37
2023-04-01T17:20:42.439Z,1.40
2023-04-01T17:23:26.823Z,1.37
2023-04-01T17:26:28.713Z,1.50
2023-04-01T17:29:21.207Z,1.44
2023-04-01T17:32:03.854Z,1.45
2023-04-01T17:34:58.001Z,1.42
2023-04-01T17:37:51.066Z,1.44
2023-04-01T17:40:47.579Z,1.39
2023-04-01T17:43:49.619Z,1.39
2023-04-01T17:46:56.799Z,1.45
2023-04-01T17:49:39.566Z,1.27
2023-04-01T17:52:26.445Z,1.34
2023-04-01T17:55:07.470Z,1.28
2023-04-01T17:57:52.770Z,1.30
2023-04-01T18:00:46.010Z,1.34
2023-04-01T18:03:45.094Z,1.36
2023-04-01T18:06:22.032Z,1.27
2023-04-01T18:09:02.720Z,1.30
2023-04-01T18:11:53.828Z,1.36
2023-04-01T18:15:06.550Z,1.33
2023-04-01T18:17:54.210Z,1.34
2023-04-01T18:20:45.714Z,1.27
2023-04-01T18:23:29.875Z,1.16
2023-04-01T18:26:10.237Z,1.29
2023-04-01T18:28:46.172Z,1.38
2023-04-01T18:31:21.397Z,1.39
2023-04-01T18:34:02.182Z,1.32
2023-04-01T18:36:46.437Z,1.36
2023-04-01T18:39:41.592Z,1.28
2023-04-01T18:42:24.869Z,1.37
2023-04-01T18:44:59.956Z,1.29
2023-04-01T18:47:48.160Z,1.37
2023-04-01T18:50:28.586Z,1.26
2023-04-01T18:53:11.243Z,1.35
2023-04-01T18:55:45.509Z,1.19
2023-04-01T18:58:34.939Z,1.34
2023-04-01T19:01:26.271Z,1.25
2023-04-01T19:04:07.597Z,1.30
2023-04-01T19:06:48.611Z,1.21
2023-04-01T19:09:27.829Z,1.23
2023-04-01T19:12:35.144Z,1.27
2023-04-01T19:15:29.766Z,1.33
2023-04-01T19:18:51.307Z,1.31
2023-04-01T19:21:31.195Z,1.32
2023-04-01T19:24:48.077Z,1.34
2023-04-01T19:27:32.745Z,1.31
2023-04-01T19:30:30.426Z,1.39
2023-04-01T19:33:15.819Z,1.48
2023-04-01T19:35:56.945Z,1.39
2023-04-01T19:38:36.106Z,1.47
2023-04-01T19:41:36.314Z,1.35
2023-04-01T19:44:29.084Z,1.34
2023-04-01T19:47:14.951Z,1.42
2023-04-01T19:50:02.498Z,1.36
2023-04-01T19:52:38.197Z,1.48
2023-04-01T19:55:29.557Z,1.39
2023-04-01T19:58:11.486Z,1.48
2023-04-01T20:00:45.475Z,1.39
2023-04-01T20:03:36.476Z,1.45
2023-04-01T20:06:18.697Z,1.31
2023-04-01T20:09:09.793Z,1.47
2023-04-01T20:11:56.175Z,1.29
2023-04-01T20:14:38.580Z,1.43
2023-04-01T20:17:22.588Z,1.25
2023-04-01T20:20:01.725Z,1.29
2023-04-01T20:23:03.511Z,1.27
2023-04-01T20:25:41.560Z,1.31
2023-04-01T20:28:22.663Z,1.35
2023-04-01T20:31:35.636Z,1.47
2023-04-01T20:34:29.013Z,1.23
2023-04-01T20:37:16.244Z,1.34
2023-04-01T20:40:21.425Z,1.34
2023-04-01T20:43:26.732Z,1.34
2023-04-01T20:46:01.782Z,1.34
2023-04-01T20:49:19.130Z,1.30
2023-04-01T20:51:56.867Z,1.25
2023-04-01T20:54:48.644Z,1.35
2023-04-01T20:57:24.187Z,1.30
2023-04-01T21:00:18.310Z,1.33
2023-04-01T21:03:14.403Z,1.27
2023-04-01T21:06:49.618Z,1.35
2023-04-01T21:09:37.995Z,1.23
2023-04-01T21:12:28.013Z,1.30
2023-04-01T21:15:35.262Z,1.27
2023-04-01T21:18:23.868Z,1.27
2023-04-01T21:21:39.767Z,1.19
2023-04-01T21:24:56.290Z,1.02
2023-04-01T21:28:05.506Z,1.03
2023-04-01T21:31:07.829Z,0.97
2023-04-01T21:34:00.689Z,0.82
2023-04-01T21:36:52.245Z,0.79
2023-04-01T21:39:45.742Z,0.84
2023-04-01T21:42:30.641Z,0.76
2023-04-01T21:45:37.652Z,0.69
2023-04-01T21:48:49.914Z,0.50
2023-04-01T21:52:12.386Z,0.55
2023-04-01T21:55:49.856Z,0.56
2023-04-01T21:59:13.263Z,0.44
2023-04-01T22:02:20.690Z,0.32
2023-04-01T22:05:02.298Z,0.38
2023-04-01T22:07:41.283Z,0.30
2023-04-01T22:10:28.228Z,0.36
2023-04-01T22:13:10.025Z,0.15
2023-04-01T22:16:12.908Z,0.22
2023-04-01T22:18:48.296Z,0.03
2023-04-01T22:21:30.398Z,0.07
2023-04-01T22:24:07.388Z,0.02
2023-04-01T22:26:50.782Z,-0.03
2023-04-01T22:29:33.074Z,-0.11
2023-04-01T22:32:09.485Z,-0.17
2023-04-01T22:34:49.844Z,-0.13
2023-04-01T22:37:30.558Z,-0.14
2023-04-01T22:40:23.431Z,-0.15
2023-04-01T22:43:00.845Z,-0.22
2023-04-01T22:46:02.007Z,-0.24
2023-04-01T22:48:39.603Z,-0.24
2023-04-01T22:51:18.889Z,-0.36
2023-04-01T22:54:13.629Z,-0.26
2023-04-01T22:56:49.961Z,-0.34
2023-04-01T22:59:26.238Z,-0.34
2023-04-01T23:02:03.021Z,-0.41
2023-04-01T23:04:38.124Z,-0.50
2023-04-01T23:07:24.135Z,-0.39
2023-04-01T23:09:55.596Z,-0.53
2023-04-01T23:12:26.767Z,-0.49
2023-04-01T23:14:59.348Z,-0.51
2023-04-01T23:17:59.959Z,-0.53
2023-04-01T23:21:06.463Z,-0.51
2023-04-01T23:23:50.863Z,-0.66
2023-04-01T23:26:32.272Z,-0.73
2023-04-01T23:29:01.732Z,-0.69
2023-04-01T23:31:35.879Z,-0.77
2023-04-01T23:34:23.785Z,-0.78
2023-04-01T23:36:55.933Z,-0.74
2023-04-01T23:39:30.626Z,-0.80
2023-04-01T23:42:06.083Z,-0.74
2023-04-01T23:44:37.532Z,-0.77
2023-04-01T23:47:10.157Z,-0.73
2023-04-01T23:49:48.989Z,-0.80
2023-04-01T23:52:24.697Z,-0.88
2023-04-01T23:54:58.528Z,-0.89
2023-04-01T23:57:33.164Z,-0.81
